sensor_id;sensor_type;location;lat;lon;timestamp;P1;durP1;ratioP1;P2;durP2;ratioP2
48006;SDS011;33771;48.180;11.400;2023-05-19T00:00:55;17.37;;;6.27;;
48006;SDS011;33771;48.180;11.400;2023-05-19T00:03:22;12.10;;;5.17;;
48006;SDS011;33771;48.180;11.400;2023-05-19T00:05:48;12.83;;;5.50;;
48006;SDS011;33771;48.180;11.400;2023-05-19T00:08:17;12.57;;;5.50;;
48006;SDS011;33771;48.180;11.400;2023-05-19T00:10:44;11.33;;;5.50;;
48006;SDS011;33771;48.180;11.400;2023-05-19T00:13:11;15.63;;;5.60;;
48006;SDS011;33771;48.180;11.400;2023-05-19T00:15:36;17.83;;;6.67;;
48006;SDS011;33771;48.180;11.400;2023-05-19T00:18:02;18.77;;;6.33;;
48006;SDS011;33771;48.180;11.400;2023-05-19T00:20:28;12.97;;;5.60;;
48006;SDS011;33771;48.180;11.400;2023-05-19T00:22:53;16.63;;;5.73;;
48006;SDS011;33771;48.180;11.400;2023-05-19T00:25:19;12.37;;;5.80;;
48006;SDS011;33771;48.180;11.400;2023-05-19T00:27:45;15.73;;;5.70;;
48006;SDS011;33771;48.180;11.400;2023-05-19T00:30:10;18.77;;;7.43;;
48006;SDS011;33771;48.180;11.400;2023-05-19T00:32:36;17.00;;;5.50;;
48006;SDS011;33771;48.180;11.400;2023-05-19T00:35:02;18.40;;;6.60;;
48006;SDS011;33771;48.180;11.400;2023-05-19T00:37:27;16.03;;;5.67;;
48006;SDS011;33771;48.180;11.400;2023-05-19T00:39:53;16.93;;;5.17;;
48006;SDS011;33771;48.180;11.400;2023-05-19T00:42:19;12.53;;;5.03;;
48006;SDS011;33771;48.180;11.400;2023-05-19T00:44:45;17.80;;;6.37;;
48006;SDS011;33771;48.180;11.400;2023-05-19T00:47:10;11.67;;;5.27;;
48006;SDS011;33771;48.180;11.400;2023-05-19T00:49:36;15.63;;;5.57;;
48006;SDS011;33771;48.180;11.400;2023-05-19T00:52:02;14.03;;;5.50;;
48006;SDS011;33771;48.180;11.400;2023-05-19T00:54:30;22.27;;;6.00;;
48006;SDS011;33771;48.180;11.400;2023-05-19T00:56:56;16.73;;;5.27;;
48006;SDS011;33771;48.180;11.400;2023-05-19T00:59:24;13.63;;;5.73;;
48006;SDS011;33771;48.180;11.400;2023-05-19T01:01:50;12.17;;;5.07;;
48006;SDS011;33771;48.180;11.400;2023-05-19T01:04:18;16.13;;;5.70;;
48006;SDS011;33771;48.180;11.400;2023-05-19T01:06:46;24.13;;;6.70;;
48006;SDS011;33771;48.180;11.400;2023-05-19T01:09:13;13.10;;;5.30;;
48006;SDS011;33771;48.180;11.400;2023-05-19T01:11:39;15.40;;;5.50;;
48006;SDS011;33771;48.180;11.400;2023-05-19T01:14:05;13.07;;;5.53;;
48006;SDS011;33771;48.180;11.400;2023-05-19T01:16:35;14.40;;;5.53;;
48006;SDS011;33771;48.180;11.400;2023-05-19T01:24:33;16.53;;;5.77;;
48006;SDS011;33771;48.180;11.400;2023-05-19T01:27:33;14.47;;;5.90;;
48006;SDS011;33771;48.180;11.400;2023-05-19T01:32:56;14.20;;;5.23;;
48006;SDS011;33771;48.180;11.400;2023-05-19T01:35:25;12.73;;;5.03;;
48006;SDS011;33771;48.180;11.400;2023-05-19T01:37:53;10.47;;;5.30;;
48006;SDS011;33771;48.180;11.400;2023-05-19T01:40:20;12.47;;;5.70;;
48006;SDS011;33771;48.180;11.400;2023-05-19T01:42:47;14.73;;;5.30;;
48006;SDS011;33771;48.180;11.400;2023-05-19T01:45:14;15.00;;;4.83;;
48006;SDS011;33771;48.180;11.400;2023-05-19T01:47:42;12.80;;;5.50;;
48006;SDS011;33771;48.180;11.400;2023-05-19T01:50:10;14.33;;;5.30;;
48006;SDS011;33771;48.180;11.400;2023-05-19T01:52:35;10.33;;;5.10;;
48006;SDS011;33771;48.180;11.400;2023-05-19T01:55:01;12.50;;;5.17;;
48006;SDS011;33771;48.180;11.400;2023-05-19T02:00:42;13.38;;;5.22;;
48006;SDS011;33771;48.180;11.400;2023-05-19T02:09:11;11.57;;;5.70;;
48006;SDS011;33771;48.180;11.400;2023-05-19T02:14:21;9.83;;;4.80;;
48006;SDS011;33771;48.180;11.400;2023-05-19T02:16:56;11.47;;;5.03;;
48006;SDS011;33771;48.180;11.400;2023-05-19T02:19:24;11.13;;;5.07;;
48006;SDS011;33771;48.180;11.400;2023-05-19T02:21:58;12.43;;;5.60;;
48006;SDS011;33771;48.180;11.400;2023-05-19T02:24:24;13.47;;;5.53;;
48006;SDS011;33771;48.180;11.400;2023-05-19T02:26:50;16.47;;;5.87;;
48006;SDS011;33771;48.180;11.400;2023-05-19T02:29:16;14.43;;;5.53;;
48006;SDS011;33771;48.180;11.400;2023-05-19T02:31:42;15.30;;;5.73;;
48006;SDS011;33771;48.180;11.400;2023-05-19T02:34:08;13.13;;;5.27;;
48006;SDS011;33771;48.180;11.400;2023-05-19T02:36:34;16.27;;;5.33;;
48006;SDS011;33771;48.180;11.400;2023-05-19T02:39:03;13.37;;;5.77;;
48006;SDS011;33771;48.180;11.400;2023-05-19T02:41:29;11.43;;;5.50;;
48006;SDS011;33771;48.180;11.400;2023-05-19T02:43:55;13.20;;;5.60;;
48006;SDS011;33771;48.180;11.400;2023-05-19T02:46:21;14.53;;;5.50;;
48006;SDS011;33771;48.180;11.400;2023-05-19T02:48:47;15.30;;;5.30;;
48006;SDS011;33771;48.180;11.400;2023-05-19T02:51:13;16.57;;;5.73;;
48006;SDS011;33771;48.180;11.400;2023-05-19T02:53:38;11.27;;;4.77;;
48006;SDS011;33771;48.180;11.400;2023-05-19T02:56:04;16.97;;;5.53;;
48006;SDS011;33771;48.180;11.400;2023-05-19T02:58:30;14.87;;;5.73;;
48006;SDS011;33771;48.180;11.400;2023-05-19T03:00:55;13.97;;;5.93;;
48006;SDS011;33771;48.180;11.400;2023-05-19T03:03:21;16.37;;;5.97;;
48006;SDS011;33771;48.180;11.400;2023-05-19T03:05:46;12.33;;;5.43;;
48006;SDS011;33771;48.180;11.400;2023-05-19T03:08:12;16.33;;;5.33;;
48006;SDS011;33771;48.180;11.400;2023-05-19T03:10:38;11.47;;;5.53;;
48006;SDS011;33771;48.180;11.400;2023-05-19T03:13:03;12.97;;;5.97;;
48006;SDS011;33771;48.180;11.400;2023-05-19T03:15:29;13.63;;;5.77;;
48006;SDS011;33771;48.180;11.400;2023-05-19T03:17:55;13.87;;;5.37;;
48006;SDS011;33771;48.180;11.400;2023-05-19T03:20:20;13.07;;;5.53;;
48006;SDS011;33771;48.180;11.400;2023-05-19T03:22:46;11.27;;;5.43;;
48006;SDS011;33771;48.180;11.400;2023-05-19T03:25:12;16.80;;;5.90;;
48006;SDS011;33771;48.180;11.400;2023-05-19T03:27:37;17.20;;;5.80;;
48006;SDS011;33771;48.180;11.400;2023-05-19T03:30:03;10.70;;;5.73;;
48006;SDS011;33771;48.180;11.400;2023-05-19T03:32:29;13.97;;;6.27;;
48006;SDS011;33771;48.180;11.400;2023-05-19T03:34:56;14.33;;;5.97;;
48006;SDS011;33771;48.180;11.400;2023-05-19T03:37:22;14.63;;;6.17;;
48006;SDS011;33771;48.180;11.400;2023-05-19T03:39:48;13.97;;;5.57;;
48006;SDS011;33771;48.180;11.400;2023-05-19T03:42:13;15.37;;;6.23;;
48006;SDS011;33771;48.180;11.400;2023-05-19T03:44:39;14.13;;;6.07;;
48006;SDS011;33771;48.180;11.400;2023-05-19T03:47:05;18.97;;;5.83;;
48006;SDS011;33771;48.180;11.400;2023-05-19T03:49:31;13.87;;;6.87;;
48006;SDS011;33771;48.180;11.400;2023-05-19T03:51:56;14.13;;;5.83;;
48006;SDS011;33771;48.180;11.400;2023-05-19T03:54:22;15.97;;;6.20;;
48006;SDS011;33771;48.180;11.400;2023-05-19T03:56:47;15.93;;;6.53;;
48006;SDS011;33771;48.180;11.400;2023-05-19T03:59:13;10.93;;;6.30;;
48006;SDS011;33771;48.180;11.400;2023-05-19T04:01:40;16.03;;;6.13;;
48006;SDS011;33771;48.180;11.400;2023-05-19T04:04:05;13.90;;;6.27;;
48006;SDS011;33771;48.180;11.400;2023-05-19T04:06:31;15.80;;;6.47;;
48006;SDS011;33771;48.180;11.400;2023-05-19T04:08:57;13.47;;;6.00;;
48006;SDS011;33771;48.180;11.400;2023-05-19T04:11:23;13.93;;;6.60;;
48006;SDS011;33771;48.180;11.400;2023-05-19T04:13:49;15.10;;;6.10;;
48006;SDS011;33771;48.180;11.400;2023-05-19T04:16:15;14.10;;;6.23;;
48006;SDS011;33771;48.180;11.400;2023-05-19T04:18:41;15.40;;;6.57;;
48006;SDS011;33771;48.180;11.400;2023-05-19T04:21:09;11.17;;;6.30;;
48006;SDS011;33771;48.180;11.400;2023-05-19T04:23:34;17.27;;;6.83;;
48006;SDS011;33771;48.180;11.400;2023-05-19T04:26:00;19.20;;;6.73;;
48006;SDS011;33771;48.180;11.400;2023-05-19T04:28:27;12.47;;;5.80;;
48006;SDS011;33771;48.180;11.400;2023-05-19T04:30:53;15.30;;;6.50;;
48006;SDS011;33771;48.180;11.400;2023-05-19T04:33:20;14.43;;;6.33;;
48006;SDS011;33771;48.180;11.400;2023-05-19T04:35:45;12.47;;;6.33;;
48006;SDS011;33771;48.180;11.400;2023-05-19T04:38:11;15.60;;;6.50;;
48006;SDS011;33771;48.180;11.400;2023-05-19T04:40:37;12.93;;;6.60;;
48006;SDS011;33771;48.180;11.400;2023-05-19T04:43:04;14.33;;;6.60;;
48006;SDS011;33771;48.180;11.400;2023-05-19T04:45:31;20.17;;;6.40;;
48006;SDS011;33771;48.180;11.400;2023-05-19T04:47:57;14.97;;;5.77;;
48006;SDS011;33771;48.180;11.400;2023-05-19T04:50:23;18.87;;;6.90;;
48006;SDS011;33771;48.180;11.400;2023-05-19T04:52:49;13.67;;;6.50;;
48006;SDS011;33771;48.180;11.400;2023-05-19T04:55:14;12.60;;;7.03;;
48006;SDS011;33771;48.180;11.400;2023-05-19T04:57:41;14.87;;;5.97;;
48006;SDS011;33771;48.180;11.400;2023-05-19T05:00:06;17.90;;;6.83;;
48006;SDS011;33771;48.180;11.400;2023-05-19T05:02:32;18.57;;;6.30;;
48006;SDS011;33771;48.180;11.400;2023-05-19T05:04:58;13.63;;;6.07;;
48006;SDS011;33771;48.180;11.400;2023-05-19T05:07:24;12.17;;;6.30;;
48006;SDS011;33771;48.180;11.400;2023-05-19T05:09:50;10.10;;;5.23;;
48006;SDS011;33771;48.180;11.400;2023-05-19T05:12:16;12.93;;;6.03;;
48006;SDS011;33771;48.180;11.400;2023-05-19T05:14:42;15.47;;;6.00;;
48006;SDS011;33771;48.180;11.400;2023-05-19T05:17:10;13.03;;;5.70;;
48006;SDS011;33771;48.180;11.400;2023-05-19T05:19:36;13.97;;;6.13;;
48006;SDS011;33771;48.180;11.400;2023-05-19T05:22:02;14.90;;;5.97;;
48006;SDS011;33771;48.180;11.400;2023-05-19T05:24:29;15.57;;;6.33;;
48006;SDS011;33771;48.180;11.400;2023-05-19T05:26:55;13.17;;;6.10;;
48006;SDS011;33771;48.180;11.400;2023-05-19T05:29:21;15.63;;;6.50;;
48006;SDS011;33771;48.180;11.400;2023-05-19T05:31:46;13.60;;;7.03;;
48006;SDS011;33771;48.180;11.400;2023-05-19T05:34:13;20.07;;;7.30;;
48006;SDS011;33771;48.180;11.400;2023-05-19T05:36:39;14.60;;;6.17;;
48006;SDS011;33771;48.180;11.400;2023-05-19T05:39:05;17.83;;;6.43;;
48006;SDS011;33771;48.180;11.400;2023-05-19T05:41:30;11.33;;;6.33;;
48006;SDS011;33771;48.180;11.400;2023-05-19T05:44:02;16.07;;;6.90;;
48006;SDS011;33771;48.180;11.400;2023-05-19T05:46:28;15.23;;;6.73;;
48006;SDS011;33771;48.180;11.400;2023-05-19T05:48:54;12.87;;;6.47;;
48006;SDS011;33771;48.180;11.400;2023-05-19T05:51:20;15.83;;;6.93;;
48006;SDS011;33771;48.180;11.400;2023-05-19T05:53:48;14.30;;;6.70;;
48006;SDS011;33771;48.180;11.400;2023-05-19T05:56:18;15.50;;;6.67;;
48006;SDS011;33771;48.180;11.400;2023-05-19T05:58:44;14.93;;;6.57;;
48006;SDS011;33771;48.180;11.400;2023-05-19T06:01:10;16.80;;;6.70;;
48006;SDS011;33771;48.180;11.400;2023-05-19T06:03:37;14.50;;;6.47;;
48006;SDS011;33771;48.180;11.400;2023-05-19T06:06:04;18.17;;;7.13;;
48006;SDS011;33771;48.180;11.400;2023-05-19T06:08:30;13.00;;;5.93;;
48006;SDS011;33771;48.180;11.400;2023-05-19T06:10:55;14.23;;;6.87;;
48006;SDS011;33771;48.180;11.400;2023-05-19T06:13:22;15.00;;;5.93;;
48006;SDS011;33771;48.180;11.400;2023-05-19T06:15:49;12.33;;;5.70;;
48006;SDS011;33771;48.180;11.400;2023-05-19T06:18:15;13.80;;;5.80;;
48006;SDS011;33771;48.180;11.400;2023-05-19T06:20:41;11.47;;;5.17;;
48006;SDS011;33771;48.180;11.400;2023-05-19T06:23:07;14.07;;;5.97;;
48006;SDS011;33771;48.180;11.400;2023-05-19T06:25:32;9.73;;;5.43;;
48006;SDS011;33771;48.180;11.400;2023-05-19T06:27:58;16.45;;;6.47;;
48006;SDS011;33771;48.180;11.400;2023-05-19T06:30:24;11.80;;;5.40;;
48006;SDS011;33771;48.180;11.400;2023-05-19T06:32:49;12.03;;;5.17;;
48006;SDS011;33771;48.180;11.400;2023-05-19T06:35:15;12.83;;;5.77;;
48006;SDS011;33771;48.180;11.400;2023-05-19T06:37:41;12.50;;;5.15;;
48006;SDS011;33771;48.180;11.400;2023-05-19T06:40:06;14.03;;;6.33;;
48006;SDS011;33771;48.180;11.400;2023-05-19T06:42:32;11.93;;;6.10;;
48006;SDS011;33771;48.180;11.400;2023-05-19T06:44:58;14.93;;;6.13;;
48006;SDS011;33771;48.180;11.400;2023-05-19T06:47:23;12.95;;;6.10;;
48006;SDS011;33771;48.180;11.400;2023-05-19T06:49:49;12.68;;;6.10;;
48006;SDS011;33771;48.180;11.400;2023-05-19T06:52:18;12.95;;;5.57;;
48006;SDS011;33771;48.180;11.400;2023-05-19T06:54:47;10.73;;;7.00;;
48006;SDS011;33771;48.180;11.400;2023-05-19T06:57:13;13.30;;;6.10;;
48006;SDS011;33771;48.180;11.400;2023-05-19T06:59:39;13.13;;;5.75;;
48006;SDS011;33771;48.180;11.400;2023-05-19T07:02:09;11.60;;;5.43;;
48006;SDS011;33771;48.180;11.400;2023-05-19T07:04:35;14.80;;;5.57;;
48006;SDS011;33771;48.180;11.400;2023-05-19T07:07:00;12.93;;;5.65;;
48006;SDS011;33771;48.180;11.400;2023-05-19T07:09:26;13.37;;;5.67;;
48006;SDS011;33771;48.180;11.400;2023-05-19T07:11:52;11.95;;;5.93;;
48006;SDS011;33771;48.180;11.400;2023-05-19T07:14:17;12.00;;;5.90;;
48006;SDS011;33771;48.180;11.400;2023-05-19T07:16:44;12.60;;;4.97;;
48006;SDS011;33771;48.180;11.400;2023-05-19T07:19:10;8.25;;;4.78;;
48006;SDS011;33771;48.180;11.400;2023-05-19T07:21:35;12.18;;;5.32;;
48006;SDS011;33771;48.180;11.400;2023-05-19T07:24:01;13.10;;;5.43;;
48006;SDS011;33771;48.180;11.400;2023-05-19T07:26:27;8.88;;;4.80;;
48006;SDS011;33771;48.180;11.400;2023-05-19T07:28:53;7.43;;;5.18;;
48006;SDS011;33771;48.180;11.400;2023-05-19T07:31:18;9.18;;;5.03;;
48006;SDS011;33771;48.180;11.400;2023-05-19T07:33:45;13.05;;;5.40;;
48006;SDS011;33771;48.180;11.400;2023-05-19T07:36:11;11.73;;;5.28;;
48006;SDS011;33771;48.180;11.400;2023-05-19T07:38:36;8.82;;;4.60;;
48006;SDS011;33771;48.180;11.400;2023-05-19T07:41:02;9.02;;;4.95;;
48006;SDS011;33771;48.180;11.400;2023-05-19T07:43:27;14.63;;;5.22;;
48006;SDS011;33771;48.180;11.400;2023-05-19T07:45:55;11.23;;;4.90;;
48006;SDS011;33771;48.180;11.400;2023-05-19T07:48:21;8.48;;;4.93;;
48006;SDS011;33771;48.180;11.400;2023-05-19T07:50:49;12.30;;;5.30;;
48006;SDS011;33771;48.180;11.400;2023-05-19T07:53:15;9.82;;;4.40;;
48006;SDS011;33771;48.180;11.400;2023-05-19T07:55:41;10.10;;;5.05;;
48006;SDS011;33771;48.180;11.400;2023-05-19T07:58:06;10.57;;;4.90;;
48006;SDS011;33771;48.180;11.400;2023-05-19T08:00:32;13.05;;;5.35;;
48006;SDS011;33771;48.180;11.400;2023-05-19T08:02:58;11.00;;;5.68;;
48006;SDS011;33771;48.180;11.400;2023-05-19T08:05:25;9.65;;;5.97;;
48006;SDS011;33771;48.180;11.400;2023-05-19T08:07:51;12.45;;;5.70;;
48006;SDS011;33771;48.180;11.400;2023-05-19T08:10:16;10.93;;;5.55;;
48006;SDS011;33771;48.180;11.400;2023-05-19T08:12:42;11.00;;;5.15;;
48006;SDS011;33771;48.180;11.400;2023-05-19T08:15:10;11.88;;;6.32;;
48006;SDS011;33771;48.180;11.400;2023-05-19T08:17:36;12.05;;;5.45;;
48006;SDS011;33771;48.180;11.400;2023-05-19T08:20:02;12.43;;;5.47;;
48006;SDS011;33771;48.180;11.400;2023-05-19T08:22:30;9.73;;;5.15;;
48006;SDS011;33771;48.180;11.400;2023-05-19T08:24:55;6.88;;;5.22;;
48006;SDS011;33771;48.180;11.400;2023-05-19T08:27:21;12.00;;;5.22;;
48006;SDS011;33771;48.180;11.400;2023-05-19T08:29:47;9.07;;;5.22;;
48006;SDS011;33771;48.180;11.400;2023-05-19T08:32:13;9.98;;;5.80;;
48006;SDS011;33771;48.180;11.400;2023-05-19T08:34:38;9.27;;;5.15;;
48006;SDS011;33771;48.180;11.400;2023-05-19T08:37:05;10.43;;;5.03;;
48006;SDS011;33771;48.180;11.400;2023-05-19T08:39:31;14.45;;;5.78;;
48006;SDS011;33771;48.180;11.400;2023-05-19T08:41:58;10.60;;;5.55;;
48006;SDS011;33771;48.180;11.400;2023-05-19T08:44:24;8.63;;;5.20;;
48006;SDS011;33771;48.180;11.400;2023-05-19T08:46:50;10.05;;;5.38;;
48006;SDS011;33771;48.180;11.400;2023-05-19T08:49:22;10.63;;;4.82;;
48006;SDS011;33771;48.180;11.400;2023-05-19T08:51:57;9.52;;;5.05;;
48006;SDS011;33771;48.180;11.400;2023-05-19T08:54:32;8.20;;;5.20;;
48006;SDS011;33771;48.180;11.400;2023-05-19T08:57:08;10.02;;;5.03;;
48006;SDS011;33771;48.180;11.400;2023-05-19T08:59:34;7.72;;;5.10;;
48006;SDS011;33771;48.180;11.400;2023-05-19T09:02:00;15.65;;;5.28;;
48006;SDS011;33771;48.180;11.400;2023-05-19T09:04:27;11.40;;;4.80;;
48006;SDS011;33771;48.180;11.400;2023-05-19T09:06:53;6.63;;;4.60;;
48006;SDS011;33771;48.180;11.400;2023-05-19T09:09:19;7.18;;;4.80;;
48006;SDS011;33771;48.180;11.400;2023-05-19T09:11:45;10.73;;;5.18;;
48006;SDS011;33771;48.180;11.400;2023-05-19T09:14:10;9.75;;;5.40;;
48006;SDS011;33771;48.180;11.400;2023-05-19T09:16:36;11.18;;;5.43;;
48006;SDS011;33771;48.180;11.400;2023-05-19T09:19:03;9.38;;;4.80;;
48006;SDS011;33771;48.180;11.400;2023-05-19T09:21:29;10.60;;;5.15;;
48006;SDS011;33771;48.180;11.400;2023-05-19T09:23:55;10.02;;;5.47;;
48006;SDS011;33771;48.180;11.400;2023-05-19T09:26:22;7.38;;;4.72;;
48006;SDS011;33771;48.180;11.400;2023-05-19T09:28:48;11.40;;;5.35;;
48006;SDS011;33771;48.180;11.400;2023-05-19T09:31:14;7.65;;;4.65;;
48006;SDS011;33771;48.180;11.400;2023-05-19T09:33:40;9.43;;;4.65;;
48006;SDS011;33771;48.180;11.400;2023-05-19T09:36:07;12.18;;;5.15;;
48006;SDS011;33771;48.180;11.400;2023-05-19T09:38:35;9.48;;;6.70;;
48006;SDS011;33771;48.180;11.400;2023-05-19T09:41:01;8.48;;;5.25;;
48006;SDS011;33771;48.180;11.400;2023-05-19T09:43:29;8.25;;;5.40;;
48006;SDS011;33771;48.180;11.400;2023-05-19T09:45:58;11.82;;;5.05;;
48006;SDS011;33771;48.180;11.400;2023-05-19T09:48:27;11.18;;;5.50;;
48006;SDS011;33771;48.180;11.400;2023-05-19T09:50:52;13.73;;;6.20;;
48006;SDS011;33771;48.180;11.400;2023-05-19T09:53:19;9.60;;;5.57;;
48006;SDS011;33771;48.180;11.400;2023-05-19T09:55:46;10.43;;;5.15;;
48006;SDS011;33771;48.180;11.400;2023-05-19T09:58:18;7.63;;;4.90;;
48006;SDS011;33771;48.180;11.400;2023-05-19T10:00:48;9.60;;;5.20;;
48006;SDS011;33771;48.180;11.400;2023-05-19T10:03:14;8.60;;;4.50;;
48006;SDS011;33771;48.180;11.400;2023-05-19T10:05:42;11.80;;;5.72;;
48006;SDS011;33771;48.180;11.400;2023-05-19T10:08:08;8.95;;;4.95;;
48006;SDS011;33771;48.180;11.400;2023-05-19T10:10:36;9.02;;;5.18;;
48006;SDS011;33771;48.180;11.400;2023-05-19T10:13:02;9.98;;;5.47;;
48006;SDS011;33771;48.180;11.400;2023-05-19T10:15:28;9.02;;;5.47;;
48006;SDS011;33771;48.180;11.400;2023-05-19T10:17:54;8.93;;;5.50;;
48006;SDS011;33771;48.180;11.400;2023-05-19T10:20:20;11.05;;;6.80;;
48006;SDS011;33771;48.180;11.400;2023-05-19T10:22:46;9.75;;;7.38;;
48006;SDS011;33771;48.180;11.400;2023-05-19T10:25:12;9.35;;;6.07;;
48006;SDS011;33771;48.180;11.400;2023-05-19T10:27:41;8.43;;;6.40;;
48006;SDS011;33771;48.180;11.400;2023-05-19T10:30:13;11.63;;;6.95;;
48006;SDS011;33771;48.180;11.400;2023-05-19T10:32:43;9.73;;;5.68;;
48006;SDS011;33771;48.180;11.400;2023-05-19T10:35:13;9.45;;;5.88;;
48006;SDS011;33771;48.180;11.400;2023-05-19T10:38:04;8.40;;;5.47;;
48006;SDS011;33771;48.180;11.400;2023-05-19T10:40:59;8.63;;;5.63;;
48006;SDS011;33771;48.180;11.400;2023-05-19T10:46:13;12.93;;;10.23;;
48006;SDS011;33771;48.180;11.400;2023-05-19T10:48:38;10.23;;;7.35;;
48006;SDS011;33771;48.180;11.400;2023-05-19T10:51:08;10.80;;;6.93;;
48006;SDS011;33771;48.180;11.400;2023-05-19T10:53:36;10.48;;;6.65;;
48006;SDS011;33771;48.180;11.400;2023-05-19T10:56:05;9.63;;;6.57;;
48006;SDS011;33771;48.180;11.400;2023-05-19T11:01:16;11.32;;;6.75;;
48006;SDS011;33771;48.180;11.400;2023-05-19T11:03:52;12.63;;;7.72;;
48006;SDS011;33771;48.180;11.400;2023-05-19T11:08:45;9.88;;;6.50;;
48006;SDS011;33771;48.180;11.400;2023-05-19T11:11:15;9.60;;;6.93;;
48006;SDS011;33771;48.180;11.400;2023-05-19T11:13:51;10.70;;;6.93;;
48006;SDS011;33771;48.180;11.400;2023-05-19T11:16:25;11.23;;;8.55;;
48006;SDS011;33771;48.180;11.400;2023-05-19T11:18:57;12.55;;;7.53;;
48006;SDS011;33771;48.180;11.400;2023-05-19T11:21:23;11.52;;;7.95;;
48006;SDS011;33771;48.180;11.400;2023-05-19T11:24:06;11.52;;;7.95;;
48006;SDS011;33771;48.180;11.400;2023-05-19T11:26:39;9.82;;;7.00;;
48006;SDS011;33771;48.180;11.400;2023-05-19T11:29:08;9.65;;;7.03;;
48006;SDS011;33771;48.180;11.400;2023-05-19T11:31:34;9.48;;;6.68;;
48006;SDS011;33771;48.180;11.400;2023-05-19T11:34:00;9.48;;;6.40;;
48006;SDS011;33771;48.180;11.400;2023-05-19T11:36:26;8.18;;;6.03;;
48006;SDS011;33771;48.180;11.400;2023-05-19T11:38:53;11.80;;;6.75;;
48006;SDS011;33771;48.180;11.400;2023-05-19T11:41:19;7.97;;;6.22;;
48006;SDS011;33771;48.180;11.400;2023-05-19T11:43:46;9.70;;;6.50;;
48006;SDS011;33771;48.180;11.400;2023-05-19T11:46:11;9.25;;;6.47;;
48006;SDS011;33771;48.180;11.400;2023-05-19T11:48:37;12.32;;;6.82;;
48006;SDS011;33771;48.180;11.400;2023-05-19T11:51:04;11.20;;;7.00;;
48006;SDS011;33771;48.180;11.400;2023-05-19T11:53:30;9.88;;;6.88;;
48006;SDS011;33771;48.180;11.400;2023-05-19T11:56:01;9.98;;;6.82;;
48006;SDS011;33771;48.180;11.400;2023-05-19T11:58:27;9.20;;;7.00;;
48006;SDS011;33771;48.180;11.400;2023-05-19T12:00:53;9.77;;;7.03;;
48006;SDS011;33771;48.180;11.400;2023-05-19T12:03:21;10.32;;;6.95;;
48006;SDS011;33771;48.180;11.400;2023-05-19T12:05:51;10.57;;;7.35;;
48006;SDS011;33771;48.180;11.400;2023-05-19T12:08:17;9.60;;;7.90;;
48006;SDS011;33771;48.180;11.400;2023-05-19T12:10:46;14.75;;;8.00;;
48006;SDS011;33771;48.180;11.400;2023-05-19T12:13:13;11.05;;;7.00;;
48006;SDS011;33771;48.180;11.400;2023-05-19T12:15:39;10.60;;;7.22;;
48006;SDS011;33771;48.180;11.400;2023-05-19T12:18:04;11.00;;;7.47;;
48006;SDS011;33771;48.180;11.400;2023-05-19T12:20:30;14.60;;;9.02;;
48006;SDS011;33771;48.180;11.400;2023-05-19T12:22:57;11.90;;;8.23;;
48006;SDS011;33771;48.180;11.400;2023-05-19T12:25:24;10.98;;;7.75;;
48006;SDS011;33771;48.180;11.400;2023-05-19T12:27:49;10.88;;;8.20;;
48006;SDS011;33771;48.180;11.400;2023-05-19T12:30:17;12.98;;;8.48;;
48006;SDS011;33771;48.180;11.400;2023-05-19T12:32:44;16.83;;;8.32;;
48006;SDS011;33771;48.180;11.400;2023-05-19T12:35:10;10.13;;;7.05;;
48006;SDS011;33771;48.180;11.400;2023-05-19T12:37:39;12.20;;;7.43;;
48006;SDS011;33771;48.180;11.400;2023-05-19T12:40:06;13.68;;;9.40;;
48006;SDS011;33771;48.180;11.400;2023-05-19T12:42:33;13.02;;;8.68;;
48006;SDS011;33771;48.180;11.400;2023-05-19T12:45:00;11.70;;;7.72;;
48006;SDS011;33771;48.180;11.400;2023-05-19T12:47:32;12.48;;;8.13;;
48006;SDS011;33771;48.180;11.400;2023-05-19T12:52:24;12.63;;;8.10;;
48006;SDS011;33771;48.180;11.400;2023-05-19T12:55:04;16.25;;;10.45;;
48006;SDS011;33771;48.180;11.400;2023-05-19T12:57:32;10.75;;;8.05;;
48006;SDS011;33771;48.180;11.400;2023-05-19T12:59:59;10.38;;;7.32;;
48006;SDS011;33771;48.180;11.400;2023-05-19T13:02:25;13.02;;;8.10;;
48006;SDS011;33771;48.180;11.400;2023-05-19T13:04:51;14.93;;;8.02;;
48006;SDS011;33771;48.180;11.400;2023-05-19T13:07:18;16.15;;;11.07;;
48006;SDS011;33771;48.180;11.400;2023-05-19T13:09:44;12.13;;;8.25;;
48006;SDS011;33771;48.180;11.400;2023-05-19T13:12:10;12.65;;;8.55;;
48006;SDS011;33771;48.180;11.400;2023-05-19T13:14:35;11.48;;;7.28;;
48006;SDS011;33771;48.180;11.400;2023-05-19T13:17:01;10.70;;;6.93;;
48006;SDS011;33771;48.180;11.400;2023-05-19T13:19:27;14.57;;;7.45;;
48006;SDS011;33771;48.180;11.400;2023-05-19T13:21:53;10.45;;;6.88;;
48006;SDS011;33771;48.180;11.400;2023-05-19T13:24:18;12.48;;;7.95;;
48006;SDS011;33771;48.180;11.400;2023-05-19T13:26:44;8.50;;;7.25;;
48006;SDS011;33771;48.180;11.400;2023-05-19T13:29:09;10.48;;;8.60;;
48006;SDS011;33771;48.180;11.400;2023-05-19T13:31:35;13.23;;;7.68;;
48006;SDS011;33771;48.180;11.400;2023-05-19T13:34:01;14.32;;;8.60;;
48006;SDS011;33771;48.180;11.400;2023-05-19T13:36:27;15.48;;;7.38;;
48006;SDS011;33771;48.180;11.400;2023-05-19T13:38:53;9.75;;;7.18;;
48006;SDS011;33771;48.180;11.400;2023-05-19T13:41:22;10.50;;;7.00;;
48006;SDS011;33771;48.180;11.400;2023-05-19T13:43:50;8.57;;;6.82;;
48006;SDS011;33771;48.180;11.400;2023-05-19T13:46:16;13.95;;;8.18;;
48006;SDS011;33771;48.180;11.400;2023-05-19T13:48:41;20.90;;;9.27;;
48006;SDS011;33771;48.180;11.400;2023-05-19T13:51:07;15.93;;;8.52;;
48006;SDS011;33771;48.180;11.400;2023-05-19T13:53:33;8.82;;;6.95;;
48006;SDS011;33771;48.180;11.400;2023-05-19T13:55:59;11.85;;;6.72;;
48006;SDS011;33771;48.180;11.400;2023-05-19T13:58:25;10.55;;;6.20;;
48006;SDS011;33771;48.180;11.400;2023-05-19T14:00:50;11.25;;;6.47;;
48006;SDS011;33771;48.180;11.400;2023-05-19T14:03:18;10.45;;;7.35;;
48006;SDS011;33771;48.180;11.400;2023-05-19T14:05:46;10.50;;;6.63;;
48006;SDS011;33771;48.180;11.400;2023-05-19T14:08:12;10.32;;;6.85;;
48006;SDS011;33771;48.180;11.400;2023-05-19T14:10:38;12.05;;;6.90;;
48006;SDS011;33771;48.180;11.400;2023-05-19T14:13:04;9.27;;;6.05;;
48006;SDS011;33771;48.180;11.400;2023-05-19T14:15:29;8.50;;;6.60;;
48006;SDS011;33771;48.180;11.400;2023-05-19T14:17:58;11.07;;;6.82;;
48006;SDS011;33771;48.180;11.400;2023-05-19T14:20:24;10.48;;;6.38;;
48006;SDS011;33771;48.180;11.400;2023-05-19T14:22:49;11.43;;;6.80;;
48006;SDS011;33771;48.180;11.400;2023-05-19T14:25:15;10.02;;;6.53;;
48006;SDS011;33771;48.180;11.400;2023-05-19T14:27:40;10.10;;;6.50;;
48006;SDS011;33771;48.180;11.400;2023-05-19T14:30:06;9.77;;;7.15;;
48006;SDS011;33771;48.180;11.400;2023-05-19T14:32:32;13.35;;;7.55;;
48006;SDS011;33771;48.180;11.400;2023-05-19T14:34:57;9.73;;;6.93;;
48006;SDS011;33771;48.180;11.400;2023-05-19T14:37:23;10.80;;;7.95;;
48006;SDS011;33771;48.180;11.400;2023-05-19T14:39:52;9.50;;;6.93;;
48006;SDS011;33771;48.180;11.400;2023-05-19T14:42:18;9.88;;;7.13;;
48006;SDS011;33771;48.180;11.400;2023-05-19T14:44:44;8.32;;;6.25;;
48006;SDS011;33771;48.180;11.400;2023-05-19T14:47:09;9.80;;;6.72;;
48006;SDS011;33771;48.180;11.400;2023-05-19T14:49:36;9.75;;;6.82;;
48006;SDS011;33771;48.180;11.400;2023-05-19T14:52:02;10.93;;;6.38;;